sensor_id;sensor_type;location;lat;lon;timestamp;P1;durP1;ratioP1;P2;durP2;ratioP2
15049;SDS011;7622;42.724;23.250;2022-12-18T00:00:05;8.50;;;7.40;;
15049;SDS011;7622;42.724;23.250;2022-12-18T00:02:32;8.27;;;6.67;;
15049;SDS011;7622;42.724;23.250;2022-12-18T00:04:59;8.87;;;7.10;;
15049;SDS011;7622;42.724;23.250;2022-12-18T00:07:26;10.93;;;8.13;;
15049;SDS011;7622;42.724;23.250;2022-12-18T00:09:54;8.53;;;6.80;;
15049;SDS011;7622;42.724;23.250;2022-12-18T00:12:21;10.53;;;7.97;;
15049;SDS011;7622;42.724;23.250;2022-12-18T00:14:47;8.73;;;7.50;;
15049;SDS011;7622;42.724;23.250;2022-12-18T00:17:14;10.53;;;7.97;;
15049;SDS011;7622;42.724;23.250;2022-12-18T00:19:41;12.07;;;8.23;;
15049;SDS011;7622;42.724;23.250;2022-12-18T00:22:08;10.67;;;8.23;;
15049;SDS011;7622;42.724;23.250;2022-12-18T00:24:34;12.03;;;7.97;;
15049;SDS011;7622;42.724;23.250;2022-12-18T00:27:03;10.63;;;8.17;;
15049;SDS011;7622;42.724;23.250;2022-12-18T00:29:29;13.83;;;8.43;;
15049;SDS011;7622;42.724;23.250;2022-12-18T00:31:56;11.37;;;8.20;;
15049;SDS011;7622;42.724;23.250;2022-12-18T00:34:23;9.00;;;6.97;;
15049;SDS011;7622;42.724;23.250;2022-12-18T00:36:50;11.90;;;7.40;;
15049;SDS011;7622;42.724;23.250;2022-12-18T00:39:16;10.47;;;7.70;;
15049;SDS011;7622;42.724;23.250;2022-12-18T00:41:43;9.83;;;7.23;;
15049;SDS011;7622;42.724;23.250;2022-12-18T00:44:29;7.43;;;6.47;;
15049;SDS011;7622;42.724;23.250;2022-12-18T00:46:55;6.90;;;6.30;;
15049;SDS011;7622;42.724;23.250;2022-12-18T00:49:22;10.23;;;7.67;;
15049;SDS011;7622;42.724;23.250;2022-12-18T00:51:49;9.80;;;7.97;;
15049;SDS011;7622;42.724;23.250;2022-12-18T00:54:16;9.83;;;7.13;;
15049;SDS011;7622;42.724;23.250;2022-12-18T00:56:43;9.37;;;7.20;;
15049;SDS011;7622;42.724;23.250;2022-12-18T00:59:10;11.30;;;7.77;;
15049;SDS011;7622;42.724;23.250;2022-12-18T01:01:38;10.30;;;8.53;;
15049;SDS011;7622;42.724;23.250;2022-12-18T01:04:04;10.20;;;8.07;;
15049;SDS011;7622;42.724;23.250;2022-12-18T01:06:31;9.67;;;7.80;;
15049;SDS011;7622;42.724;23.250;2022-12-18T01:08:58;9.73;;;7.67;;
15049;SDS011;7622;42.724;23.250;2022-12-18T01:11:25;10.50;;;8.23;;
15049;SDS011;7622;42.724;23.250;2022-12-18T01:13:52;12.53;;;8.83;;
15049;SDS011;7622;42.724;23.250;2022-12-18T01:16:19;9.73;;;7.57;;
15049;SDS011;7622;42.724;23.250;2022-12-18T01:18:49;12.43;;;8.50;;
15049;SDS011;7622;42.724;23.250;2022-12-18T01:21:18;11.30;;;9.40;;
15049;SDS011;7622;42.724;23.250;2022-12-18T01:23:45;11.07;;;8.87;;
15049;SDS011;7622;42.724;23.250;2022-12-18T01:26:12;12.40;;;9.33;;
15049;SDS011;7622;42.724;23.250;2022-12-18T01:28:43;12.53;;;8.30;;
15049;SDS011;7622;42.724;23.250;2022-12-18T01:31:10;13.70;;;9.33;;
15049;SDS011;7622;42.724;23.250;2022-12-18T01:33:38;10.83;;;8.33;;
15049;SDS011;7622;42.724;23.250;2022-12-18T01:36:07;9.87;;;8.73;;
15049;SDS011;7622;42.724;23.250;2022-12-18T01:38:34;12.33;;;8.80;;
15049;SDS011;7622;42.724;23.250;2022-12-18T01:41:01;10.77;;;8.23;;
15049;SDS011;7622;42.724;23.250;2022-12-18T01:43:41;11.80;;;7.83;;
15049;SDS011;7622;42.724;23.250;2022-12-18T01:46:12;11.83;;;8.27;;
15049;SDS011;7622;42.724;23.250;2022-12-18T01:48:40;9.80;;;6.80;;
15049;SDS011;7622;42.724;23.250;2022-12-18T01:51:10;9.20;;;7.60;;
15049;SDS011;7622;42.724;23.250;2022-12-18T01:53:38;13.20;;;8.97;;
15049;SDS011;7622;42.724;23.250;2022-12-18T01:56:07;10.57;;;8.07;;
15049;SDS011;7622;42.724;23.250;2022-12-18T01:58:39;10.40;;;7.63;;
15049;SDS011;7622;42.724;23.250;2022-12-18T02:01:12;11.13;;;7.27;;
15049;SDS011;7622;42.724;23.250;2022-12-18T02:03:41;11.23;;;8.30;;
15049;SDS011;7622;42.724;23.250;2022-12-18T02:06:12;13.47;;;8.57;;
15049;SDS011;7622;42.724;23.250;2022-12-18T02:08:43;8.67;;;6.63;;
15049;SDS011;7622;42.724;23.250;2022-12-18T02:11:16;10.20;;;7.00;;
15049;SDS011;7622;42.724;23.250;2022-12-18T02:13:51;12.27;;;7.60;;
15049;SDS011;7622;42.724;23.250;2022-12-18T02:16:24;12.33;;;7.17;;
15049;SDS011;7622;42.724;23.250;2022-12-18T02:18:59;9.70;;;6.83;;
15049;SDS011;7622;42.724;23.250;2022-12-18T02:21:36;8.70;;;6.97;;
15049;SDS011;7622;42.724;23.250;2022-12-18T02:24:15;8.13;;;6.63;;
15049;SDS011;7622;42.724;23.250;2022-12-18T02:26:52;11.63;;;6.90;;
15049;SDS011;7622;42.724;23.250;2022-12-18T02:29:22;9.20;;;7.50;;
15049;SDS011;7622;42.724;23.250;2022-12-18T02:31:53;10.00;;;7.30;;
15049;SDS011;7622;42.724;23.250;2022-12-18T02:34:23;10.93;;;7.20;;
15049;SDS011;7622;42.724;23.250;2022-12-18T02:36:53;8.13;;;7.20;;
15049;SDS011;7622;42.724;23.250;2022-12-18T02:39:22;9.43;;;7.07;;
15049;SDS011;7622;42.724;23.250;2022-12-18T02:41:52;9.47;;;7.70;;
15049;SDS011;7622;42.724;23.250;2022-12-18T02:44:19;10.50;;;7.10;;
15049;SDS011;7622;42.724;23.250;2022-12-18T02:46:46;10.17;;;7.60;;
15049;SDS011;7622;42.724;23.250;2022-12-18T02:49:20;8.60;;;7.70;;
15049;SDS011;7622;42.724;23.250;2022-12-18T02:51:52;9.97;;;6.97;;
15049;SDS011;7622;42.724;23.250;2022-12-18T02:54:27;10.70;;;7.83;;
15049;SDS011;7622;42.724;23.250;2022-12-18T02:57:16;12.03;;;8.03;;
15049;SDS011;7622;42.724;23.250;2022-12-18T02:59:50;10.33;;;7.83;;
15049;SDS011;7622;42.724;23.250;2022-12-18T03:02:24;8.70;;;7.50;;
15049;SDS011;7622;42.724;23.250;2022-12-18T03:04:56;11.30;;;7.73;;
15049;SDS011;7622;42.724;23.250;2022-12-18T03:07:28;12.27;;;8.00;;
15049;SDS011;7622;42.724;23.250;2022-12-18T03:10:03;8.33;;;7.13;;
15049;SDS011;7622;42.724;23.250;2022-12-18T03:12:36;9.83;;;7.30;;
15049;SDS011;7622;42.724;23.250;2022-12-18T03:15:07;7.87;;;6.40;;
15049;SDS011;7622;42.724;23.250;2022-12-18T03:17:38;9.93;;;7.63;;
15049;SDS011;7622;42.724;23.250;2022-12-18T03:20:12;9.93;;;7.47;;
15049;SDS011;7622;42.724;23.250;2022-12-18T03:22:41;9.03;;;7.53;;
15049;SDS011;7622;42.724;23.250;2022-12-18T03:25:12;8.33;;;6.17;;
15049;SDS011;7622;42.724;23.250;2022-12-18T03:27:43;8.40;;;6.40;;
15049;SDS011;7622;42.724;23.250;2022-12-18T03:30:14;7.23;;;6.53;;
15049;SDS011;7622;42.724;23.250;2022-12-18T03:32:43;6.70;;;6.03;;
15049;SDS011;7622;42.724;23.250;2022-12-18T03:35:14;9.20;;;6.60;;
15049;SDS011;7622;42.724;23.250;2022-12-18T03:37:45;8.50;;;6.37;;
15049;SDS011;7622;42.724;23.250;2022-12-18T03:40:12;8.23;;;6.10;;
15049;SDS011;7622;42.724;23.250;2022-12-18T03:42:42;11.43;;;7.37;;
15049;SDS011;7622;42.724;23.250;2022-12-18T03:45:18;7.57;;;6.77;;
15049;SDS011;7622;42.724;23.250;2022-12-18T03:47:53;8.43;;;6.33;;
15049;SDS011;7622;42.724;23.250;2022-12-18T03:50:27;7.30;;;6.57;;
15049;SDS011;7622;42.724;23.250;2022-12-18T03:53:04;12.53;;;8.73;;
15049;SDS011;7622;42.724;23.250;2022-12-18T03:55:40;9.07;;;8.13;;
15049;SDS011;7622;42.724;23.250;2022-12-18T03:58:09;11.63;;;8.77;;
15049;SDS011;7622;42.724;23.250;2022-12-18T04:00:42;10.67;;;8.10;;
15049;SDS011;7622;42.724;23.250;2022-12-18T04:03:10;10.67;;;8.03;;
15049;SDS011;7622;42.724;23.250;2022-12-18T04:05:38;13.33;;;8.17;;
15049;SDS011;7622;42.724;23.250;2022-12-18T04:08:06;12.73;;;9.00;;
15049;SDS011;7622;42.724;23.250;2022-12-18T04:10:33;10.77;;;8.60;;
15049;SDS011;7622;42.724;23.250;2022-12-18T04:13:00;11.23;;;8.60;;
15049;SDS011;7622;42.724;23.250;2022-12-18T04:15:28;13.87;;;9.23;;
15049;SDS011;7622;42.724;23.250;2022-12-18T04:17:55;14.53;;;9.30;;
15049;SDS011;7622;42.724;23.250;2022-12-18T04:20:22;16.27;;;9.20;;
15049;SDS011;7622;42.724;23.250;2022-12-18T04:22:48;16.03;;;9.63;;
15049;SDS011;7622;42.724;23.250;2022-12-18T04:25:15;12.77;;;9.03;;
15049;SDS011;7622;42.724;23.250;2022-12-18T04:27:42;14.00;;;9.73;;
15049;SDS011;7622;42.724;23.250;2022-12-18T04:30:09;14.73;;;10.07;;
15049;SDS011;7622;42.724;23.250;2022-12-18T04:32:38;13.13;;;9.83;;
15049;SDS011;7622;42.724;23.250;2022-12-18T04:35:05;16.40;;;10.13;;
15049;SDS011;7622;42.724;23.250;2022-12-18T04:37:35;16.70;;;11.10;;
15049;SDS011;7622;42.724;23.250;2022-12-18T04:40:02;14.20;;;9.57;;
15049;SDS011;7622;42.724;23.250;2022-12-18T04:42:29;17.30;;;9.67;;
15049;SDS011;7622;42.724;23.250;2022-12-18T04:44:57;17.03;;;10.03;;
15049;SDS011;7622;42.724;23.250;2022-12-18T04:47:24;16.77;;;10.57;;
15049;SDS011;7622;42.724;23.250;2022-12-18T04:49:52;13.67;;;10.30;;
15049;SDS011;7622;42.724;23.250;2022-12-18T04:52:19;16.43;;;10.23;;
15049;SDS011;7622;42.724;23.250;2022-12-18T04:54:46;15.17;;;9.57;;
15049;SDS011;7622;42.724;23.250;2022-12-18T04:57:13;16.43;;;10.07;;
15049;SDS011;7622;42.724;23.250;2022-12-18T04:59:40;18.83;;;10.60;;
15049;SDS011;7622;42.724;23.250;2022-12-18T05:02:06;17.03;;;11.30;;
15049;SDS011;7622;42.724;23.250;2022-12-18T05:04:33;16.80;;;10.90;;
15049;SDS011;7622;42.724;23.250;2022-12-18T05:07:01;16.03;;;10.70;;
15049;SDS011;7622;42.724;23.250;2022-12-18T05:09:28;15.60;;;10.43;;
15049;SDS011;7622;42.724;23.250;2022-12-18T05:11:55;18.60;;;11.43;;
15049;SDS011;7622;42.724;23.250;2022-12-18T05:14:22;18.33;;;11.37;;
15049;SDS011;7622;42.724;23.250;2022-12-18T05:16:49;18.90;;;11.50;;
15049;SDS011;7622;42.724;23.250;2022-12-18T05:19:16;18.63;;;11.13;;
15049;SDS011;7622;42.724;23.250;2022-12-18T05:21:43;17.13;;;10.53;;
15049;SDS011;7622;42.724;23.250;2022-12-18T05:24:11;15.27;;;10.27;;
15049;SDS011;7622;42.724;23.250;2022-12-18T05:26:38;17.43;;;11.03;;
15049;SDS011;7622;42.724;23.250;2022-12-18T05:29:04;18.53;;;10.93;;
15049;SDS011;7622;42.724;23.250;2022-12-18T05:31:31;16.57;;;10.60;;
15049;SDS011;7622;42.724;23.250;2022-12-18T05:33:58;18.40;;;12.10;;
15049;SDS011;7622;42.724;23.250;2022-12-18T05:36:25;18.23;;;11.00;;
15049;SDS011;7622;42.724;23.250;2022-12-18T05:38:51;17.83;;;10.30;;
15049;SDS011;7622;42.724;23.250;2022-12-18T05:41:20;22.17;;;12.80;;
15049;SDS011;7622;42.724;23.250;2022-12-18T05:43:46;21.73;;;12.90;;
15049;SDS011;7622;42.724;23.250;2022-12-18T05:46:14;18.77;;;12.03;;
15049;SDS011;7622;42.724;23.250;2022-12-18T05:48:42;24.27;;;12.57;;
15049;SDS011;7622;42.724;23.250;2022-12-18T05:51:11;20.07;;;12.23;;
15049;SDS011;7622;42.724;23.250;2022-12-18T05:53:39;22.17;;;12.67;;
15049;SDS011;7622;42.724;23.250;2022-12-18T05:56:07;22.63;;;12.97;;
15049;SDS011;7622;42.724;23.250;2022-12-18T05:58:36;21.20;;;12.57;;
15049;SDS011;7622;42.724;23.250;2022-12-18T06:01:07;19.80;;;12.30;;
15049;SDS011;7622;42.724;23.250;2022-12-18T06:03:35;20.47;;;13.43;;
15049;SDS011;7622;42.724;23.250;2022-12-18T06:06:02;21.53;;;12.27;;
15049;SDS011;7622;42.724;23.250;2022-12-18T06:08:29;18.80;;;11.60;;
15049;SDS011;7622;42.724;23.250;2022-12-18T06:10:56;24.03;;;13.17;;
15049;SDS011;7622;42.724;23.250;2022-12-18T06:13:23;16.57;;;11.03;;
15049;SDS011;7622;42.724;23.250;2022-12-18T06:15:51;19.27;;;11.33;;
15049;SDS011;7622;42.724;23.250;2022-12-18T06:18:18;19.27;;;10.93;;
15049;SDS011;7622;42.724;23.250;2022-12-18T06:20:44;22.07;;;11.77;;
15049;SDS011;7622;42.724;23.250;2022-12-18T06:23:11;18.40;;;11.67;;
15049;SDS011;7622;42.724;23.250;2022-12-18T06:25:38;19.40;;;11.50;;
15049;SDS011;7622;42.724;23.250;2022-12-18T06:28:05;19.53;;;10.93;;
15049;SDS011;7622;42.724;23.250;2022-12-18T06:30:32;17.77;;;11.37;;
15049;SDS011;7622;42.724;23.250;2022-12-18T06:33:00;20.57;;;12.70;;
15049;SDS011;7622;42.724;23.250;2022-12-18T06:35:27;17.77;;;10.90;;
15049;SDS011;7622;42.724;23.250;2022-12-18T06:37:54;17.03;;;11.47;;
15049;SDS011;7622;42.724;23.250;2022-12-18T06:40:20;18.20;;;11.67;;
15049;SDS011;7622;42.724;23.250;2022-12-18T06:42:47;19.53;;;11.70;;
15049;SDS011;7622;42.724;23.250;2022-12-18T06:45:14;17.00;;;10.37;;
15049;SDS011;7622;42.724;23.250;2022-12-18T06:47:41;18.57;;;11.00;;
15049;SDS011;7622;42.724;23.250;2022-12-18T06:50:10;16.77;;;10.40;;
15049;SDS011;7622;42.724;23.250;2022-12-18T06:52:37;16.60;;;11.37;;
15049;SDS011;7622;42.724;23.250;2022-12-18T06:55:08;19.30;;;11.77;;
15049;SDS011;7622;42.724;23.250;2022-12-18T06:57:36;27.97;;;16.83;;
15049;SDS011;7622;42.724;23.250;2022-12-18T07:00:04;20.57;;;11.30;;
15049;SDS011;7622;42.724;23.250;2022-12-18T07:02:37;21.53;;;12.40;;
15049;SDS011;7622;42.724;23.250;2022-12-18T07:05:06;20.37;;;11.83;;
15049;SDS011;7622;42.724;23.250;2022-12-18T07:07:35;20.17;;;12.60;;
15049;SDS011;7622;42.724;23.250;2022-12-18T07:10:03;23.63;;;12.97;;
15049;SDS011;7622;42.724;23.250;2022-12-18T07:12:30;24.30;;;13.23;;
15049;SDS011;7622;42.724;23.250;2022-12-18T07:14:59;20.60;;;11.93;;
15049;SDS011;7622;42.724;23.250;2022-12-18T07:17:32;24.77;;;13.57;;
15049;SDS011;7622;42.724;23.250;2022-12-18T07:20:00;25.30;;;13.87;;
15049;SDS011;7622;42.724;23.250;2022-12-18T07:22:31;21.50;;;12.87;;
15049;SDS011;7622;42.724;23.250;2022-12-18T07:25:06;22.80;;;14.23;;
15049;SDS011;7622;42.724;23.250;2022-12-18T07:27:36;21.03;;;13.70;;
15049;SDS011;7622;42.724;23.250;2022-12-18T07:30:07;21.30;;;13.37;;
15049;SDS011;7622;42.724;23.250;2022-12-18T07:32:38;24.80;;;14.80;;
15049;SDS011;7622;42.724;23.250;2022-12-18T07:35:16;26.83;;;13.93;;
15049;SDS011;7622;42.724;23.250;2022-12-18T07:37:44;22.40;;;13.30;;
15049;SDS011;7622;42.724;23.250;2022-12-18T07:40:16;22.37;;;13.67;;
15049;SDS011;7622;42.724;23.250;2022-12-18T07:42:44;21.00;;;12.73;;
15049;SDS011;7622;42.724;23.250;2022-12-18T07:45:12;25.27;;;14.27;;
15049;SDS011;7622;42.724;23.250;2022-12-18T07:47:39;24.80;;;14.00;;
15049;SDS011;7622;42.724;23.250;2022-12-18T07:50:09;26.70;;;15.13;;
15049;SDS011;7622;42.724;23.250;2022-12-18T07:52:38;24.37;;;14.00;;
15049;SDS011;7622;42.724;23.250;2022-12-18T07:55:05;23.13;;;13.73;;
15049;SDS011;7622;42.724;23.250;2022-12-18T07:57:34;24.23;;;13.20;;
15049;SDS011;7622;42.724;23.250;2022-12-18T08:00:01;27.33;;;13.97;;
15049;SDS011;7622;42.724;23.250;2022-12-18T08:02:30;26.67;;;16.13;;
15049;SDS011;7622;42.724;23.250;2022-12-18T08:04:56;24.97;;;14.83;;
15049;SDS011;7622;42.724;23.250;2022-12-18T08:07:24;24.70;;;14.27;;
15049;SDS011;7622;42.724;23.250;2022-12-18T08:09:51;28.10;;;16.70;;
15049;SDS011;7622;42.724;23.250;2022-12-18T08:12:17;29.37;;;16.07;;
15049;SDS011;7622;42.724;23.250;2022-12-18T08:14:45;25.23;;;14.23;;
15049;SDS011;7622;42.724;23.250;2022-12-18T08:17:12;26.47;;;15.20;;
15049;SDS011;7622;42.724;23.250;2022-12-18T08:19:39;24.77;;;13.67;;
15049;SDS011;7622;42.724;23.250;2022-12-18T08:22:06;23.93;;;12.70;;
15049;SDS011;7622;42.724;23.250;2022-12-18T08:24:32;27.40;;;13.47;;
15049;SDS011;7622;42.724;23.250;2022-12-18T08:26:59;20.37;;;13.07;;
15049;SDS011;7622;42.724;23.250;2022-12-18T08:29:26;23.27;;;13.00;;
15049;SDS011;7622;42.724;23.250;2022-12-18T08:31:54;25.87;;;13.77;;
15049;SDS011;7622;42.724;23.250;2022-12-18T08:34:21;23.43;;;12.60;;
15049;SDS011;7622;42.724;23.250;2022-12-18T08:36:48;24.73;;;13.43;;
15049;SDS011;7622;42.724;23.250;2022-12-18T08:39:14;24.13;;;13.83;;
15049;SDS011;7622;42.724;23.250;2022-12-18T08:41:41;23.33;;;12.53;;
15049;SDS011;7622;42.724;23.250;2022-12-18T08:44:28;22.57;;;12.53;;
15049;SDS011;7622;42.724;23.250;2022-12-18T08:47:04;22.10;;;13.63;;
15049;SDS011;7622;42.724;23.250;2022-12-18T08:49:32;18.83;;;11.53;;
15049;SDS011;7622;42.724;23.250;2022-12-18T08:52:00;21.93;;;12.13;;
15049;SDS011;7622;42.724;23.250;2022-12-18T08:54:28;20.80;;;11.90;;
15049;SDS011;7622;42.724;23.250;2022-12-18T08:56:55;17.73;;;10.27;;
15049;SDS011;7622;42.724;23.250;2022-12-18T08:59:22;18.97;;;12.13;;
15049;SDS011;7622;42.724;23.250;2022-12-18T09:01:49;19.47;;;11.67;;
15049;SDS011;7622;42.724;23.250;2022-12-18T09:04:17;23.10;;;11.63;;
15049;SDS011;7622;42.724;23.250;2022-12-18T09:06:44;16.90;;;11.53;;
15049;SDS011;7622;42.724;23.250;2022-12-18T09:09:10;19.93;;;11.17;;
15049;SDS011;7622;42.724;23.250;2022-12-18T09:11:37;19.93;;;11.87;;
15049;SDS011;7622;42.724;23.250;2022-12-18T09:14:04;21.27;;;11.80;;
15049;SDS011;7622;42.724;23.250;2022-12-18T09:16:31;18.63;;;11.30;;
15049;SDS011;7622;42.724;23.250;2022-12-18T09:19:00;16.73;;;10.70;;
15049;SDS011;7622;42.724;23.250;2022-12-18T09:21:31;17.83;;;10.43;;
15049;SDS011;7622;42.724;23.250;2022-12-18T09:23:59;14.33;;;9.37;;
15049;SDS011;7622;42.724;23.250;2022-12-18T09:26:26;16.00;;;10.93;;
15049;SDS011;7622;42.724;23.250;2022-12-18T09:28:53;18.30;;;10.50;;
15049;SDS011;7622;42.724;23.250;2022-12-18T09:31:21;17.40;;;11.00;;
15049;SDS011;7622;42.724;23.250;2022-12-18T09:33:49;20.20;;;10.60;;
15049;SDS011;7622;42.724;23.250;2022-12-18T09:36:16;17.30;;;10.47;;
15049;SDS011;7622;42.724;23.250;2022-12-18T09:38:45;19.03;;;10.87;;
15049;SDS011;7622;42.724;23.250;2022-12-18T09:41:25;18.00;;;10.87;;
15049;SDS011;7622;42.724;23.250;2022-12-18T09:44:03;14.40;;;9.23;;
15049;SDS011;7622;42.724;23.250;2022-12-18T09:46:38;21.03;;;10.73;;
15049;SDS011;7622;42.724;23.250;2022-12-18T09:49:11;17.53;;;11.00;;
15049;SDS011;7622;42.724;23.250;2022-12-18T09:51:41;21.63;;;10.53;;
15049;SDS011;7622;42.724;23.250;2022-12-18T09:54:14;16.13;;;9.90;;
15049;SDS011;7622;42.724;23.250;2022-12-18T09:56:44;16.93;;;10.67;;
15049;SDS011;7622;42.724;23.250;2022-12-18T09:59:15;14.73;;;10.37;;
15049;SDS011;7622;42.724;23.250;2022-12-18T10:01:47;16.10;;;9.70;;
15049;SDS011;7622;42.724;23.250;2022-12-18T10:04:14;18.30;;;11.00;;
15049;SDS011;7622;42.724;23.250;2022-12-18T10:06:43;18.73;;;11.30;;
15049;SDS011;7622;42.724;23.250;2022-12-18T10:09:20;18.27;;;11.23;;
15049;SDS011;7622;42.724;23.250;2022-12-18T10:11:56;19.63;;;11.37;;
15049;SDS011;7622;42.724;23.250;2022-12-18T10:14:32;19.73;;;10.93;;
15049;SDS011;7622;42.724;23.250;2022-12-18T10:17:05;20.03;;;11.00;;
15049;SDS011;7622;42.724;23.250;2022-12-18T10:19:44;18.00;;;11.27;;
15049;SDS011;7622;42.724;23.250;2022-12-18T10:22:21;18.80;;;10.43;;
15049;SDS011;7622;42.724;23.250;2022-12-18T10:25:02;18.90;;;11.63;;
15049;SDS011;7622;42.724;23.250;2022-12-18T10:27:33;15.23;;;9.77;;
15049;SDS011;7622;42.724;23.250;2022-12-18T10:30:00;16.27;;;10.13;;
15049;SDS011;7622;42.724;23.250;2022-12-18T10:32:35;21.87;;;11.73;;
15049;SDS011;7622;42.724;23.250;2022-12-18T10:35:02;20.40;;;11.47;;
15049;SDS011;7622;42.724;23.250;2022-12-18T10:37:29;21.93;;;12.27;;
15049;SDS011;7622;42.724;23.250;2022-12-18T10:40:08;20.83;;;11.53;;
15049;SDS011;7622;42.724;23.250;2022-12-18T10:42:37;22.43;;;12.27;;
15049;SDS011;7622;42.724;23.250;2022-12-18T10:45:08;21.70;;;11.67;;
15049;SDS011;7622;42.724;23.250;2022-12-18T10:47:36;20.83;;;11.60;;
15049;SDS011;7622;42.724;23.250;2022-12-18T10:50:11;19.77;;;11.73;;
15049;SDS011;7622;42.724;23.250;2022-12-18T10:52:53;18.67;;;9.83;;
15049;SDS011;7622;42.724;23.250;2022-12-18T10:55:23;15.07;;;9.60;;
15049;SDS011;7622;42.724;23.250;2022-12-18T10:57:53;14.77;;;8.97;;
15049;SDS011;7622;42.724;23.250;2022-12-18T11:00:27;18.50;;;10.60;;
15049;SDS011;7622;42.724;23.250;2022-12-18T11:02:55;22.53;;;12.60;;
15049;SDS011;7622;42.724;23.250;2022-12-18T11:05:24;21.43;;;11.03;;
15049;SDS011;7622;42.724;23.250;2022-12-18T11:07:53;24.60;;;11.47;;
15049;SDS011;7622;42.724;23.250;2022-12-18T11:10:23;21.20;;;11.90;;
15049;SDS011;7622;42.724;23.250;2022-12-18T11:12:54;19.33;;;11.73;;
15049;SDS011;7622;42.724;23.250;2022-12-18T11:15:21;25.23;;;11.37;;
15049;SDS011;7622;42.724;23.250;2022-12-18T11:17:52;19.33;;;10.83;;
15049;SDS011;7622;42.724;23.250;2022-12-18T11:20:21;18.60;;;10.27;;
15049;SDS011;7622;42.724;23.250;2022-12-18T11:22:57;17.43;;;10.93;;
15049;SDS011;7622;42.724;23.250;2022-12-18T11:25:27;18.90;;;10.60;;
15049;SDS011;7622;42.724;23.250;2022-12-18T11:27:54;17.73;;;10.50;;
15049;SDS011;7622;42.724;23.250;2022-12-18T11:30:24;23.20;;;11.63;;
15049;SDS011;7622;42.724;23.250;2022-12-18T11:32:54;16.83;;;11.87;;
15049;SDS011;7622;42.724;23.250;2022-12-18T11:35:27;17.47;;;10.97;;
15049;SDS011;7622;42.724;23.250;2022-12-18T11:38:02;19.23;;;10.73;;
15049;SDS011;7622;42.724;23.250;2022-12-18T11:40:35;17.67;;;11.00;;
15049;SDS011;7622;42.724;23.250;2022-12-18T11:43:06;20.13;;;11.20;;
15049;SDS011;7622;42.724;23.250;2022-12-18T11:45:39;22.60;;;10.43;;
15049;SDS011;7622;42.724;23.250;2022-12-18T11:48:12;18.30;;;11.30;;
15049;SDS011;7622;42.724;23.250;2022-12-18T11:50:46;19.53;;;11.00;;
15049;SDS011;7622;42.724;23.250;2022-12-18T11:53:15;22.23;;;12.57;;
15049;SDS011;7622;42.724;23.250;2022-12-18T11:55:47;15.77;;;10.97;;
15049;SDS011;7622;42.724;23.250;2022-12-18T11:58:35;21.03;;;11.23;;
15049;SDS011;7622;42.724;23.250;2022-12-18T12:01:14;21.37;;;11.50;;
15049;SDS011;7622;42.724;23.250;2022-12-18T12:03:58;17.00;;;10.20;;
15049;SDS011;7622;42.724;23.250;2022-12-18T12:06:35;16.70;;;10.07;;
15049;SDS011;7622;42.724;23.250;2022-12-18T12:09:10;19.00;;;11.27;;
15049;SDS011;7622;42.724;23.250;2022-12-18T12:11:53;16.73;;;10.83;;
15049;SDS011;7622;42.724;23.250;2022-12-18T12:14:31;19.63;;;11.03;;
15049;SDS011;7622;42.724;23.250;2022-12-18T12:17:08;16.00;;;10.30;;
15049;SDS011;7622;42.724;23.250;2022-12-18T12:19:45;17.60;;;10.27;;
15049;SDS011;7622;42.724;23.250;2022-12-18T12:22:20;16.23;;;10.50;;
15049;SDS011;7622;42.724;23.250;2022-12-18T12:24:56;20.53;;;11.80;;
15049;SDS011;7622;42.724;23.250;2022-12-18T12:27:38;18.50;;;11.40;;
15049;SDS011;7622;42.724;23.250;2022-12-18T12:30:16;19.97;;;11.37;;
15049;SDS011;7622;42.724;23.250;2022-12-18T12:32:52;17.17;;;11.53;;
15049;SDS011;7622;42.724;23.250;2022-12-18T12:35:33;19.90;;;12.27;;
15049;SDS011;7622;42.724;23.250;2022-12-18T12:38:11;20.53;;;11.30;;
15049;SDS011;7622;42.724;23.250;2022-12-18T12:40:45;16.70;;;10.73;;
15049;SDS011;7622;42.724;23.250;2022-12-18T12:43:25;21.57;;;12.10;;
15049;SDS011;7622;42.724;23.250;2022-12-18T12:45:57;21.77;;;11.80;;
15049;SDS011;7622;42.724;23.250;2022-12-18T12:48:31;17.63;;;10.33;;
15049;SDS011;7622;42.724;23.250;2022-12-18T12:51:03;19.57;;;12.50;;
15049;SDS011;7622;42.724;23.250;2022-12-18T12:53:37;18.33;;;11.27;;
15049;SDS011;7622;42.724;23.250;2022-12-18T12:56:06;21.23;;;11.93;;
15049;SDS011;7622;42.724;23.250;2022-12-18T12:58:38;16.67;;;10.67;;
15049;SDS011;7622;42.724;23.250;2022-12-18T13:01:13;19.37;;;10.50;;
15049;SDS011;7622;42.724;23.250;2022-12-18T13:03:54;17.03;;;10.60;;
15049;SDS011;7622;42.724;23.250;2022-12-18T13:06:34;18.53;;;11.60;;
15049;SDS011;7622;42.724;23.250;2022-12-18T13:09:07;20.10;;;10.67;;
15049;SDS011;7622;42.724;23.250;2022-12-18T13:11:35;16.60;;;10.20;;
15049;SDS011;7622;42.724;23.250;2022-12-18T13:14:26;18.47;;;10.30;;
15049;SDS011;7622;42.724;23.250;2022-12-18T13:20:06;19.43;;;11.83;;
15049;SDS011;7622;42.724;23.250;2022-12-18T13:22:36;19.47;;;11.03;;
15049;SDS011;7622;42.724;23.250;2022-12-18T13:27:58;16.53;;;10.43;;
15049;SDS011;7622;42.724;23.250;2022-12-18T13:30:45;18.63;;;11.53;;
15049;SDS011;7622;42.724;23.250;2022-12-18T13:33:30;18.87;;;10.80;;
15049;SDS011;7622;42.724;23.250;2022-12-18T13:36:09;20.50;;;11.60;;
15049;SDS011;7622;42.724;23.250;2022-12-18T13:38:41;19.80;;;10.93;;
15049;SDS011;7622;42.724;23.250;2022-12-18T13:41:22;18.27;;;11.37;;
15049;SDS011;7622;42.724;23.250;2022-12-18T13:43:51;17.27;;;10.17;;
15049;SDS011;7622;42.724;23.250;2022-12-18T13:46:21;19.67;;;10.83;;
15049;SDS011;7622;42.724;23.250;2022-12-18T13:48:57;17.07;;;10.70;;
15049;SDS011;7622;42.724;23.250;2022-12-18T13:51:26;17.97;;;10.50;;
15049;SDS011;7622;42.724;23.250;2022-12-18T13:53:56;13.83;;;9.60;;
15049;SDS011;7622;42.724;23.250;2022-12-18T13:56:26;17.43;;;9.77;;
15049;SDS011;7622;42.724;23.250;2022-12-18T14:01:44;15.70;;;9.60;;
15049;SDS011;7622;42.724;23.250;2022-12-18T14:04:17;18.33;;;9.70;;
15049;SDS011;7622;42.724;23.250;2022-12-18T14:06:46;16.40;;;9.83;;
15049;SDS011;7622;42.724;23.250;2022-12-18T14:09:15;16.77;;;9.97;;
15049;SDS011;7622;42.724;23.250;2022-12-18T14:11:46;20.47;;;10.17;;
15049;SDS011;7622;42.724;23.250;2022-12-18T14:14:14;16.63;;;9.47;;
15049;SDS011;7622;42.724;23.250;2022-12-18T14:16:44;19.87;;;10.30;;
15049;SDS011;7622;42.724;23.250;2022-12-18T14:19:14;15.97;;;9.70;;
15049;SDS011;7622;42.724;23.250;2022-12-18T14:21:47;13.80;;;8.93;;
15049;SDS011;7622;42.724;23.250;2022-12-18T14:24:19;15.23;;;9.17;;
15049;SDS011;7622;42.724;23.250;2022-12-18T14:26:47;14.83;;;8.73;;
15049;SDS011;7622;42.724;23.250;2022-12-18T14:29:19;14.47;;;9.17;;
15049;SDS011;7622;42.724;23.250;2022-12-18T14:34:31;17.20;;;8.77;;
15049;SDS011;7622;42.724;23.250;2022-12-18T14:36:58;13.90;;;9.00;;
15049;SDS011;7622;42.724;23.250;2022-12-18T14:39:25;12.23;;;8.23;;
15049;SDS011;7622;42.724;23.250;2022-12-18T14:41:52;14.40;;;9.27;;
15049;SDS011;7622;42.724;23.250;2022-12-18T14:44:19;16.90;;;9.53;;
15049;SDS011;7622;42.724;23.250;2022-12-18T14:46:47;16.60;;;9.63;;
15049;SDS011;7622;42.724;23.250;2022-12-18T14:49:22;18.57;;;8.67;;
15049;SDS011;7622;42.724;23.250;2022-12-18T14:51:53;13.50;;;8.50;;
15049;SDS011;7622;42.724;23.250;2022-12-18T14:54:22;15.87;;;8.30;;
15049;SDS011;7622;42.724;23.250;2022-12-18T14:56:51;14.93;;;8.03;;